Time;durP1;ratioP1;P1;durP2;ratioP2;P2;SDS_P1;SDS_P2;PMS_P1;PMS_P2;Temp;Humidity;BMP_temperature;BMP_pressure;BME280_temperature;BME280_humidity;BME280_pressure;Samples;Min_cycle;Max_cycle;Signal;HPM_P1;HPM_P2
2022/04/11 00:00:32;;;;;;;1999.90;999.90;;;4.90;99.90;;;;;;5094779;28;20498;-69
2022/04/11 00:02:58;;;;;;;1999.90;999.90;;;4.90;99.90;;;;;;5094280;28;20445;-69
2022/04/11 00:05:25;;;;;;;1999.90;999.90;;;4.90;99.90;;;;;;5094364;28;20449;-69
2022/04/11 00:07:52;;;;;;;1999.90;999.90;;;4.80;99.90;;;;;;5094513;28;20456;-68
2022/04/11 00:10:18;;;;;;;1999.90;999.90;;;4.70;99.90;;;;;;5094303;28;20445;-69
2022/04/11 00:12:45;;;;;;;1999.90;999.90;;;4.70;99.90;;;;;;5093892;28;20452;-69
2022/04/11 00:15:13;;;;;;;1999.90;999.90;;;4.60;99.90;;;;;;5093814;28;20990;-68
2022/04/11 00:17:40;;;;;;;1999.90;999.90;;;4.50;99.90;;;;;;5093639;28;20484;-69
2022/04/11 00:20:07;;;;;;;1999.90;999.90;;;4.40;99.90;;;;;;5094140;28;20440;-68
2022/04/11 00:22:35;;;;;;;1999.90;999.90;;;4.30;99.90;;;;;;5093486;28;20452;-69
2022/04/11 00:25:01;;;;;;;1999.90;999.90;;;4.20;99.90;;;;;;5093673;28;20816;-69
2022/04/11 00:27:28;;;;;;;1999.90;999.90;;;4.10;99.90;;;;;;5092764;28;20521;-69
2022/04/11 00:29:55;;;;;;;1999.90;999.90;;;4.10;99.90;;;;;;5093677;28;20445;-69
2022/04/11 00:32:23;;;;;;;1999.90;999.90;;;4.00;99.90;;;;;;5092240;28;20449;-69
2022/04/11 00:34:49;;;;;;;1999.90;999.90;;;4.00;99.90;;;;;;5093838;28;20448;-69
2022/04/11 00:37:16;;;;;;;1999.90;999.90;;;4.00;99.90;;;;;;5092949;28;21065;-69
2022/04/11 00:39:42;;;;;;;1999.90;999.90;;;3.90;99.90;;;;;;5093956;28;20448;-68
2022/04/11 00:42:10;;;;;;;1999.90;999.90;;;3.90;99.90;;;;;;5093230;28;20449;-69
2022/04/11 00:44:37;;;;;;;1999.90;999.90;;;3.80;99.90;;;;;;5093118;28;20478;-69
2022/04/11 00:47:04;;;;;;;1999.90;999.90;;;3.80;99.90;;;;;;5093383;28;20441;-69
2022/04/11 00:49:32;;;;;;;1999.90;999.90;;;3.70;99.90;;;;;;5092862;28;21055;-69
2022/04/11 00:51:59;;;;;;;1999.90;999.90;;;3.60;99.90;;;;;;5092706;28;20475;-69
2022/04/11 00:54:28;;;;;;;1999.90;999.90;;;3.60;99.90;;;;;;5093107;28;20493;-69
2022/04/11 00:56:57;;;;;;;1999.90;999.90;;;3.60;99.90;;;;;;5092837;28;20484;-69
2022/04/11 00:59:24;;;;;;;1999.90;999.90;;;3.50;99.90;;;;;;5093251;28;20448;-69
2022/04/11 01:01:51;;;;;;;1999.90;999.90;;;3.50;99.90;;;;;;5092660;28;20449;-68
2022/04/11 01:04:24;;;;;;;1999.90;999.90;;;3.50;99.90;;;;;;5093010;28;20449;-69
2022/04/11 01:06:52;;;;;;;1999.90;999.90;;;3.40;99.90;;;;;;5092607;28;20487;-68
2022/04/11 01:09:18;;;;;;;1999.90;999.90;;;3.40;99.90;;;;;;5093061;28;20497;-69
2022/04/11 01:11:45;;;;;;;1999.90;999.90;;;3.40;99.90;;;;;;5092279;28;20553;-67
2022/04/11 01:14:12;;;;;;;1999.90;999.90;;;3.40;99.90;;;;;;5092566;28;20510;-69
2022/04/11 01:16:38;;;;;;;1999.90;999.90;;;3.40;99.90;;;;;;5092485;28;20501;-68
2022/04/11 01:19:05;;;;;;;1999.90;999.90;;;3.40;99.90;;;;;;5072429;28;20886;-67
2022/04/11 01:21:33;;;;;;;1999.90;999.90;;;3.40;99.90;;;;;;5072467;28;20453;-68
2022/04/11 01:24:00;;;;;;;1999.90;999.90;;;3.40;99.90;;;;;;5091981;28;20449;-69
2022/04/11 01:26:27;;;;;;;1999.90;999.90;;;3.30;99.90;;;;;;5092319;28;20505;-68
2022/04/11 01:28:54;;;;;;;1999.90;999.90;;;3.30;99.90;;;;;;5098061;22;20874;-66
2022/04/11 01:31:21;;;;;;;1999.90;999.90;;;3.30;99.90;;;;;;5065008;28;20571;-68
2022/04/11 01:33:47;;;;;;;1999.90;999.90;;;3.30;99.90;;;;;;5084191;28;20437;-67
2022/04/11 01:36:14;;;;;;;1999.90;999.90;;;3.30;99.90;;;;;;5066553;28;20449;-65
2022/04/11 01:38:42;;;;;;;1999.90;999.90;;;3.30;99.90;;;;;;5066372;28;20489;-66
2022/04/11 01:41:09;;;;;;;1999.90;999.90;;;3.30;99.90;;;;;;5066840;28;20816;-66
2022/04/11 01:43:35;;;;;;;1999.90;999.90;;;3.30;99.90;;;;;;5065520;28;20511;-66
2022/04/11 01:46:02;;;;;;;1999.90;999.90;;;3.20;99.90;;;;;;5070359;28;20449;-66
2022/04/11 01:48:29;;;;;;;1999.90;999.90;;;3.20;99.90;;;;;;5069431;28;20499;-66
2022/04/11 01:50:55;;;;;;;1999.90;999.90;;;3.20;99.90;;;;;;5068485;28;20450;-67
2022/04/11 01:53:22;;;;;;;1999.90;999.90;;;3.20;99.90;;;;;;5071505;28;20485;-67
2022/04/11 01:55:50;;;;;;;1999.90;999.90;;;3.20;99.90;;;;;;5072389;28;20495;-67
2022/04/11 01:58:17;;;;;;;1999.90;999.90;;;3.10;99.90;;;;;;5071003;28;20481;-67
2022/04/11 02:00:44;;;;;;;1999.90;999.90;;;3.10;99.90;;;;;;5065879;28;20511;-66
2022/04/11 02:03:12;;;;;;;1999.90;999.90;;;3.00;99.90;;;;;;5065331;28;20499;-66
2022/04/11 02:05:39;;;;;;;1999.90;999.90;;;3.00;99.90;;;;;;5065989;28;20453;-65
2022/04/11 02:08:07;;;;;;;1999.90;999.90;;;3.00;99.90;;;;;;5065476;28;20981;-66
2022/04/11 02:10:35;;;;;;;1999.90;999.90;;;3.00;99.90;;;;;;5071407;28;20878;-67
2022/04/11 02:13:03;;;;;;;1999.90;999.90;;;3.00;99.90;;;;;;5071253;28;20544;-66
2022/04/11 02:15:30;;;;;;;1999.90;999.90;;;2.90;99.90;;;;;;5070464;28;20495;-67
2022/04/11 02:17:57;;;;;;;1999.90;999.90;;;2.90;99.90;;;;;;5065734;28;20484;-66
2022/04/11 02:20:24;;;;;;;1999.90;999.90;;;2.90;99.90;;;;;;5067911;28;20938;-63
2022/04/11 02:22:52;;;;;;;1999.90;999.90;;;2.90;99.90;;;;;;5071063;28;20980;-67
2022/04/11 02:25:20;;;;;;;1999.90;999.90;;;2.90;99.90;;;;;;5071389;28;20585;-65
2022/04/11 02:27:48;;;;;;;1999.90;999.90;;;2.90;99.90;;;;;;5070744;28;20908;-67
2022/04/11 02:30:17;;;;;;;1999.90;999.90;;;2.80;99.90;;;;;;5071758;28;20450;-67
2022/04/11 02:32:44;;;;;;;1999.90;999.90;;;2.90;99.90;;;;;;5070422;28;20996;-67
2022/04/11 02:35:12;;;;;;;1999.90;999.90;;;2.90;99.90;;;;;;5071810;28;20484;-66
2022/04/11 02:37:39;;;;;;;1999.90;999.90;;;2.80;99.90;;;;;;5065973;28;20471;-67
2022/04/11 02:40:07;;;;;;;1999.90;999.90;;;2.80;99.90;;;;;;5068890;28;20449;-66
2022/04/11 02:42:34;;;;;;;1999.90;999.90;;;2.70;99.90;;;;;;5070809;28;20488;-68
2022/04/11 02:45:01;;;;;;;1999.90;999.90;;;2.80;99.90;;;;;;5071994;28;20794;-66
2022/04/11 02:47:29;;;;;;;1999.90;999.90;;;2.70;99.90;;;;;;5067668;28;20453;-63
2022/04/11 02:49:56;;;;;;;1999.90;999.90;;;2.70;99.90;;;;;;5066951;28;20449;-66
2022/04/11 02:52:23;;;;;;;1999.90;999.90;;;2.70;99.90;;;;;;5068893;28;20444;-66
2022/04/11 02:54:49;;;;;;;1999.90;999.90;;;2.60;99.90;;;;;;5075016;28;20494;-66
2022/04/11 02:57:16;;;;;;;1999.90;999.90;;;2.60;99.90;;;;;;5075424;28;20453;-66
2022/04/11 02:59:42;;;;;;;1999.90;999.90;;;2.60;99.90;;;;;;5074959;28;20526;-66
2022/04/11 03:02:09;;;;;;;1999.90;999.90;;;2.60;99.90;;;;;;5075273;28;20502;-67
2022/04/11 03:04:37;;;;;;;1999.90;999.90;;;2.60;99.90;;;;;;5076024;28;20445;-66
2022/04/11 03:07:05;;;;;;;1999.90;999.90;;;2.50;99.90;;;;;;5074465;28;20449;-67
2022/04/11 03:09:32;;;;;;;1999.90;999.90;;;2.50;99.90;;;;;;5075997;28;20479;-67
2022/04/11 03:11:58;;;;;;;1999.90;999.90;;;2.50;99.90;;;;;;5080260;28;20862;-67
2022/04/11 03:14:25;;;;;;;1999.90;999.90;;;2.40;99.90;;;;;;5082139;28;20503;-66
2022/04/11 03:16:52;;;;;;;1999.90;999.90;;;2.40;99.90;;;;;;5082503;28;21009;-66
2022/04/11 03:19:19;;;;;;;1999.90;999.90;;;2.40;99.90;;;;;;5083429;28;20484;-67
2022/04/11 03:21:47;;;;;;;1999.90;999.90;;;2.40;99.90;;;;;;5079428;28;20453;-64
2022/04/11 03:24:14;;;;;;;1999.90;999.90;;;2.30;99.90;;;;;;5077586;28;20453;-66
2022/04/11 03:26:41;;;;;;;1999.90;999.90;;;2.20;99.90;;;;;;5072847;28;20499;-67
2022/04/11 03:29:07;;;;;;;1999.90;999.90;;;2.20;99.90;;;;;;5072555;28;20896;-65
2022/04/11 03:31:34;;;;;;;1999.90;999.90;;;2.20;99.90;;;;;;5072071;28;20449;-66
2022/04/11 03:34:01;;;;;;;1999.90;999.90;;;2.20;99.90;;;;;;5070114;28;20874;-66
2022/04/11 03:36:27;;;;;;;1999.90;999.90;;;2.20;99.90;;;;;;5069907;28;20453;-66
2022/04/11 03:38:55;;;;;;;1999.90;999.90;;;2.30;99.90;;;;;;5075760;28;20485;-66
2022/04/11 03:41:22;;;;;;;1999.90;999.90;;;2.10;99.90;;;;;;5075661;28;20492;-66
2022/04/11 03:43:48;;;;;;;1999.90;999.90;;;2.10;99.90;;;;;;5075325;28;20487;-65
2022/04/11 03:46:15;;;;;;;1999.90;999.90;;;2.10;99.90;;;;;;5075334;28;20515;-65
2022/04/11 03:48:42;;;;;;;1999.90;999.90;;;2.10;99.90;;;;;;5070814;28;21047;-65
2022/04/11 03:51:08;;;;;;;1999.90;999.90;;;2.00;99.90;;;;;;5068941;28;20454;-67
2022/04/11 03:53:35;;;;;;;1999.90;999.90;;;1.90;99.90;;;;;;5069094;28;20457;-66
2022/04/11 03:56:04;;;;;;;1999.90;999.90;;;1.80;99.90;;;;;;5067844;28;20574;-65
2022/04/11 03:58:31;;;;;;;1999.90;999.90;;;1.80;99.90;;;;;;5068283;28;20489;-66
2022/04/11 04:00:57;;;;;;;1999.90;999.90;;;1.80;99.90;;;;;;5068481;28;20480;-66
2022/04/11 04:03:24;;;;;;;1999.90;999.90;;;1.80;99.90;;;;;;5067940;28;20445;-64
2022/04/11 04:05:51;;;;;;;1999.90;999.90;;;1.80;99.90;;;;;;5068210;28;20958;-65
2022/04/11 04:08:18;;;;;;;1999.90;999.90;;;1.60;99.90;;;;;;5068755;28;20465;-67
2022/04/11 04:10:45;;;;;;;1999.90;999.90;;;1.60;99.90;;;;;;5073034;28;20445;-66
2022/04/11 04:13:13;;;;;;;1999.90;999.90;;;1.60;99.90;;;;;;5073689;28;20459;-63
2022/04/11 04:15:40;;;;;;;1999.90;999.90;;;1.60;99.90;;;;;;5073939;28;20507;-64
2022/04/11 04:18:06;;;;;;;1999.90;999.90;;;1.60;99.90;;;;;;5071137;28;20473;-66
2022/04/11 04:20:33;;;;;;;1999.90;999.90;;;1.60;99.90;;;;;;5068052;28;20456;-66
2022/04/11 04:23:00;;;;;;;1999.90;999.90;;;1.60;99.90;;;;;;5069342;28;20441;-65
2022/04/11 04:25:27;;;;;;;1999.90;999.90;;;1.60;99.90;;;;;;5073695;28;20484;-67
2022/04/11 04:27:53;;;;;;;1999.90;999.90;;;1.50;99.90;;;;;;5072785;28;20521;-66
2022/04/11 04:30:22;;;;;;;1999.90;999.90;;;1.50;99.90;;;;;;5067528;28;20471;-64
2022/04/11 04:32:48;;;;;;;1999.90;999.90;;;1.70;99.90;;;;;;5067369;28;20453;-65
2022/04/11 04:35:15;;;;;;;1999.90;999.90;;;1.50;99.90;;;;;;5067859;28;20458;-66
2022/04/11 04:37:42;;;;;;;1999.90;999.90;;;1.60;99.90;;;;;;5068483;28;20473;-64
2022/04/11 04:40:11;;;;;;;1999.90;999.90;;;1.60;99.90;;;;;;5067634;28;20441;-66
2022/04/11 04:42:38;;;;;;;1999.90;999.90;;;1.50;99.90;;;;;;5072360;28;20449;-62
2022/04/11 04:45:06;;;;;;;1999.90;999.90;;;1.60;99.90;;;;;;5070649;28;20943;-66
2022/04/11 04:47:34;;;;;;;1999.90;999.90;;;1.70;99.90;;;;;;5067900;28;20499;-65
2022/04/11 04:50:00;;;;;;;1999.90;999.90;;;1.70;99.90;;;;;;5067162;28;20506;-67
2022/04/11 04:52:27;;;;;;;1999.90;999.90;;;1.70;99.90;;;;;;5069855;28;20996;-66
2022/04/11 04:54:54;;;;;;;1999.90;999.90;;;1.80;99.90;;;;;;5072896;28;20860;-66
2022/04/11 04:57:20;;;;;;;1999.90;999.90;;;1.80;99.90;;;;;;5073059;28;20830;-65
2022/04/11 04:59:48;;;;;;;1999.90;999.90;;;1.90;99.90;;;;;;5067751;28;20489;-65
2022/04/11 05:02:14;;;;;;;1999.90;999.90;;;2.00;99.90;;;;;;5066993;28;20517;-65
2022/04/11 05:04:42;;;;;;;1999.90;999.90;;;2.00;99.90;;;;;;5067606;28;20503;-64
2022/04/11 05:07:09;;;;;;;1999.90;999.90;;;2.00;99.90;;;;;;5068237;28;20503;-65
2022/04/11 05:09:35;;;;;;;1999.90;999.90;;;2.00;99.90;;;;;;5066452;28;21088;-64
2022/04/11 05:12:02;;;;;;;1999.90;999.90;;;2.10;99.90;;;;;;5067387;28;20958;-66
2022/04/11 05:14:29;;;;;;;1999.90;999.90;;;2.60;99.90;;;;;;5072092;28;20479;-64
2022/04/11 05:16:55;;;;;;;1999.90;999.90;;;2.30;99.90;;;;;;5073047;28;20441;-65
2022/04/11 05:19:22;;;;;;;1999.90;999.90;;;2.50;99.90;;;;;;5072812;28;20473;-65
2022/04/11 05:21:50;;;;;;;1999.90;999.90;;;2.80;99.90;;;;;;5069704;28;20876;-64
2022/04/11 05:24:17;;;;;;;1999.90;999.90;;;2.90;99.90;;;;;;5066456;28;20453;-66
2022/04/11 05:26:43;;;;;;;1999.90;999.90;;;3.30;99.90;;;;;;5067015;28;20492;-65
2022/04/11 05:29:10;;;;;;;1999.90;999.90;;;3.40;99.90;;;;;;5068786;28;20523;-65
2022/04/11 05:31:36;;;;;;;1999.90;999.90;;;3.70;99.90;;;;;;5071305;28;20495;-63
2022/04/11 05:34:05;;;;;;;1999.90;999.90;;;3.90;99.90;;;;;;5071302;28;20511;-64
2022/04/11 05:36:32;;;;;;;1999.90;999.90;;;4.20;99.90;;;;;;5072646;28;20488;-65
2022/04/11 05:39:00;;;;;;;1999.90;999.90;;;4.60;99.90;;;;;;5071875;28;20484;-66
2022/04/11 05:41:27;;;;;;;1999.90;999.90;;;4.70;99.90;;;;;;5069117;28;20469;-64
2022/04/11 05:43:54;;;;;;;1999.90;999.90;;;5.00;99.90;;;;;;5065432;28;20476;-66
2022/04/11 05:46:20;;;;;;;1999.90;999.90;;;4.90;99.90;;;;;;5065191;28;20479;-63
2022/04/11 05:48:47;;;;;;;1999.90;999.90;;;5.10;99.90;;;;;;5063651;28;20468;-64
2022/04/11 05:51:14;;;;;;;1999.90;999.90;;;5.30;99.90;;;;;;5068422;28;20949;-60
2022/04/11 05:53:41;;;;;;;1999.90;999.90;;;5.40;99.90;;;;;;5068731;28;20476;-64
2022/04/11 05:56:09;;;;;;;1999.90;999.90;;;5.40;99.90;;;;;;5071366;28;20882;-64
2022/04/11 05:58:36;;;;;;;1999.90;999.90;;;5.40;99.90;;;;;;5064665;28;20492;-60
2022/04/11 06:01:03;;;;;;;1999.90;999.90;;;5.30;99.90;;;;;;5063135;28;20461;-61
2022/04/11 06:03:29;;;;;;;1999.90;999.90;;;5.50;99.90;;;;;;5062512;28;20437;-62
2022/04/11 06:05:56;;;;;;;1999.90;999.90;;;5.70;99.90;;;;;;5069763;28;20514;-64
2022/04/11 06:08:23;;;;;;;1999.90;999.90;;;5.90;99.90;;;;;;5073064;28;20476;-64
2022/04/11 06:10:49;;;;;;;1999.90;999.90;;;6.20;99.90;;;;;;5071838;28;20464;-61
2022/04/11 06:13:17;;;;;;;1999.90;999.90;;;6.30;99.90;;;;;;5072819;28;20457;-63
2022/04/11 06:15:44;;;;;;;1999.90;999.90;;;6.60;99.90;;;;;;5074694;28;20473;-63
2022/04/11 06:18:11;;;;;;;1999.90;999.90;;;6.70;99.90;;;;;;5071047;28;20538;-64
2022/04/11 06:20:37;;;;;;;1999.90;999.90;;;7.00;99.90;;;;;;5073665;28;20465;-62
2022/04/11 06:23:04;;;;;;;1999.90;999.90;;;7.20;99.90;;;;;;5076846;28;20456;-64
2022/04/11 06:25:31;;;;;;;1999.90;999.90;;;7.40;99.90;;;;;;5073278;28;20538;-64
2022/04/11 06:27:57;;;;;;;1999.90;999.90;;;7.50;99.90;;;;;;5073352;28;20526;-64
2022/04/11 06:30:25;;;;;;;1999.90;999.90;;;7.70;99.90;;;;;;5070461;28;20714;-64
2022/04/11 06:32:52;;;;;;;1999.90;999.90;;;8.00;99.90;;;;;;5075581;28;20460;-64
2022/04/11 06:35:19;;;;;;;1999.90;999.90;;;8.20;99.90;;;;;;5074820;28;20501;-64
2022/04/11 06:37:45;;;;;;;1999.90;999.90;;;8.30;99.90;;;;;;5072550;28;20477;-63
2022/04/11 06:40:12;;;;;;;1999.90;999.90;;;8.40;99.90;;;;;;5076211;28;20504;-63
2022/04/11 06:42:39;;;;;;;1999.90;999.90;;;8.50;99.90;;;;;;5070584;28;20464;-64
2022/04/11 06:45:07;;;;;;;1999.90;999.90;;;8.60;99.90;;;;;;5071285;28;20465;-65
2022/04/11 06:47:35;;;;;;;1999.90;999.90;;;8.70;99.90;;;;;;5072279;28;20519;-65
2022/04/11 06:50:02;;;;;;;1999.90;999.90;;;8.60;99.90;;;;;;5078778;28;20461;-65
2022/04/11 06:52:29;;;;;;;1999.90;999.90;;;8.70;99.90;;;;;;5077832;28;20487;-66
2022/04/11 06:54:56;;;;;;;1999.90;999.90;;;8.70;99.90;;;;;;5082962;28;20519;-67
2022/04/11 06:57:23;;;;;;;1999.90;999.90;;;8.80;99.80;;;;;;5080953;28;20442;-65
2022/04/11 06:59:50;;;;;;;1999.90;999.90;;;8.90;99.80;;;;;;5076684;28;20971;-65
2022/04/11 07:02:17;;;;;;;1999.90;999.90;;;9.20;99.30;;;;;;5066926;28;20508;-66
2022/04/11 07:04:45;;;;;;;1999.90;999.90;;;9.20;98.30;;;;;;5077910;28;20465;-67
2022/04/11 07:07:12;;;;;;;1999.90;999.90;;;9.40;98.40;;;;;;5074268;28;20870;-66
2022/04/11 07:09:38;;;;;;;1999.90;999.90;;;9.60;98.10;;;;;;5073310;28;20476;-66
2022/04/11 07:12:06;;;;;;;1999.90;999.90;;;9.70;97.40;;;;;;5069724;28;20461;-67
2022/04/11 07:14:33;;;;;;;1999.90;999.90;;;10.00;97.00;;;;;;5069402;28;20464;-65
2022/04/11 07:16:59;;;;;;;1999.90;999.90;;;10.30;96.10;;;;;;5071780;28;20476;-67
2022/04/11 07:19:26;;;;;;;1999.90;999.90;;;10.50;96.00;;;;;;5070681;28;20618;-66
2022/04/11 07:21:54;;;;;;;1999.90;999.90;;;10.60;95.40;;;;;;5066283;28;20454;-66
2022/04/11 07:24:21;;;;;;;1999.90;999.90;;;10.60;94.20;;;;;;5070483;28;20515;-67
2022/04/11 07:26:47;;;;;;;1999.90;999.90;;;10.80;94.60;;;;;;5071204;28;20442;-67
2022/04/11 07:29:14;;;;;;;1999.90;999.90;;;10.60;94.00;;;;;;5072084;28;20489;-69
2022/04/11 07:31:40;;;;;;;1999.90;999.90;;;10.80;93.80;;;;;;5068524;28;20461;-69
2022/04/11 07:34:07;;;;;;;1999.90;999.90;;;10.80;92.80;;;;;;5068112;28;20457;-68
2022/04/11 07:36:34;;;;;;;1999.90;999.90;;;10.80;93.20;;;;;;5072449;28;20491;-69
2022/04/11 07:39:02;;;;;;;1999.90;999.90;;;10.90;93.10;;;;;;5073877;28;20510;-69
2022/04/11 07:41:29;;;;;;;1999.90;999.90;;;10.90;93.60;;;;;;5074111;28;20461;-70
2022/04/11 07:43:57;;;;;;;1999.90;999.90;;;11.00;93.60;;;;;;5074007;28;20946;-69
2022/04/11 07:46:23;;;;;;;1999.90;999.90;;;11.20;94.00;;;;;;5072331;28;20468;-69
2022/04/11 07:48:50;;;;;;;1999.90;999.90;;;11.30;93.10;;;;;;5076592;28;20488;-69
2022/04/11 07:51:16;;;;;;;1999.90;999.90;;;11.50;92.20;;;;;;5073037;28;20457;-69
2022/04/11 07:53:43;;;;;;;1999.90;999.90;;;11.50;91.40;;;;;;5074773;28;20511;-69
2022/04/11 07:56:11;;;;;;;1999.90;999.90;;;11.30;91.30;;;;;;5072318;28;20881;-69
2022/04/11 07:58:38;;;;;;;1999.90;999.90;;;11.40;91.50;;;;;;5074917;28;20599;-68
2022/04/11 08:01:04;;;;;;;1999.90;999.90;;;11.40;91.00;;;;;;5073628;28;20527;-66
2022/04/11 08:03:31;;;;;;;1999.90;999.90;;;11.60;90.90;;;;;;5072578;28;20830;-66
2022/04/11 08:05:58;;;;;;;1999.90;999.90;;;11.80;92.00;;;;;;5073599;28;20461;-67
2022/04/11 08:08:24;;;;;;;1999.90;999.90;;;12.00;91.90;;;;;;5074729;28;21047;-66
2022/04/11 08:10:51;;;;;;;1999.90;999.90;;;12.50;91.60;;;;;;5074236;28;20461;-69
2022/04/11 08:13:19;;;;;;;1999.90;999.90;;;12.30;89.80;;;;;;5072176;28;20836;-68
2022/04/11 08:15:46;;;;;;;1999.90;999.90;;;12.50;90.00;;;;;;5068989;28;20465;-68
2022/04/11 08:18:13;;;;;;;1999.90;999.90;;;12.40;89.10;;;;;;5073390;28;20910;-66
2022/04/11 08:20:39;;;;;;;1999.90;999.90;;;12.50;89.00;;;;;;5071367;28;20481;-67
2022/04/11 08:23:06;;;;;;;1999.90;999.90;;;12.50;89.60;;;;;;5072657;28;20465;-68
2022/04/11 08:25:33;;;;;;;1999.90;999.90;;;12.60;87.50;;;;;;5074686;28;20898;-67
2022/04/11 08:27:59;;;;;;;1999.90;999.90;;;12.20;88.10;;;;;;5073153;28;20493;-68
2022/04/11 08:30:27;;;;;;;1999.90;999.90;;;12.20;88.60;;;;;;5071734;28;20458;-68
2022/04/11 08:32:55;;;;;;;1999.90;999.90;;;12.50;87.80;;;;;;5072610;28;20492;-67
2022/04/11 08:35:23;;;;;;;1999.90;999.90;;;12.20;88.10;;;;;;5074075;28;20491;-69
2022/04/11 08:37:50;;;;;;;1999.90;999.90;;;12.30;88.20;;;;;;5075969;28;20489;-68
2022/04/11 08:40:19;;;;;;;1999.90;999.90;;;12.80;88.90;;;;;;5071978;28;21091;-68
2022/04/11 08:42:48;;;;;;;1999.90;999.90;;;13.10;86.00;;;;;;5071840;28;21005;-67
2022/04/11 08:45:16;;;;;;;1999.90;999.90;;;13.50;85.70;;;;;;5071678;28;20469;-67
2022/04/11 08:47:45;;;;;;;1999.90;999.90;;;13.50;86.20;;;;;;5070944;28;20571;-67
2022/04/11 08:50:13;;;;;;;1999.90;999.90;;;13.40;84.40;;;;;;5071676;28;20457;-66
2022/04/11 08:52:40;;;;;;;1999.90;999.90;;;13.20;83.50;;;;;;5074640;28;20523;-67
2022/04/11 08:55:08;;;;;;;1999.90;999.90;;;13.10;83.00;;;;;;5078952;28;20895;-65
2022/04/11 08:57:36;;;;;;;1999.90;999.90;;;13.10;81.80;;;;;;5071932;28;20515;-68
2022/04/11 09:00:06;;;;;;;1999.90;999.90;;;13.30;82.70;;;;;;5071969;28;20531;-68
2022/04/11 09:02:34;;;;;;;1999.90;999.90;;;13.30;83.30;;;;;;5071292;28;20533;-69
2022/04/11 09:05:03;;;;;;;1999.90;999.90;;;13.60;82.60;;;;;;5070122;28;20535;-68
2022/04/11 09:07:45;;;;;;;1999.90;999.90;;;13.70;81.80;;;;;;5070145;28;20491;-67
2022/04/11 09:10:12;;;;;;;1999.90;999.90;;;13.70;85.00;;;;;;5069618;28;20517;-68
2022/04/11 09:12:47;;;;;;;1999.90;999.90;;;14.10;84.10;;;;;;5074061;28;20447;-68
2022/04/11 09:15:15;;;;;;;1999.90;999.90;;;14.20;81.60;;;;;;5070326;28;20461;-66
2022/04/11 09:17:42;;;;;;;1999.90;999.90;;;14.10;81.20;;;;;;5071682;28;20445;-69
2022/04/11 09:20:12;;;;;;;1999.90;999.90;;;13.80;83.50;;;;;;5070276;28;20481;-67
2022/04/11 09:22:39;;;;;;;1999.90;999.90;;;13.60;81.30;;;;;;5070485;28;20468;-67
2022/04/11 09:25:11;;;;;;;1999.90;999.90;;;13.70;81.90;;;;;;5073693;28;20518;-71
2022/04/11 09:27:38;;;;;;;1999.90;999.90;;;14.10;82.40;;;;;;5070576;28;20494;-69
2022/04/11 09:30:22;;;;;;;1999.90;999.90;;;14.40;81.10;;;;;;5071312;28;20462;-67
2022/04/11 09:32:54;;;;;;;1999.90;999.90;;;14.50;80.70;;;;;;5070143;28;20791;-67
2022/04/11 09:35:23;;;;;;;1999.90;999.90;;;14.90;81.20;;;;;;5071097;28;20510;-67
2022/04/11 09:38:04;;;;;;;1999.90;999.90;;;15.00;79.30;;;;;;5071376;28;20470;-68
2022/04/11 09:40:31;;;;;;;1999.90;999.90;;;14.70;81.60;;;;;;5071400;28;20519;-67
2022/04/11 09:42:58;;;;;;;1999.90;999.90;;;14.90;80.00;;;;;;5070615;28;21019;-68
2022/04/11 09:45:25;;;;;;;1999.90;999.90;;;15.20;78.00;;;;;;5068031;28;20583;-66
2022/04/11 09:48:03;;;;;;;1999.90;999.90;;;15.00;74.30;;;;;;5072211;28;20477;-66
2022/04/11 09:50:32;;;;;;;1999.90;999.90;;;14.20;76.90;;;;;;5082337;28;20516;-67
2022/04/11 09:53:10;;;;;;;1999.90;999.90;;;13.80;81.60;;;;;;5071845;28;20457;-66
2022/04/11 09:55:37;;;;;;;1999.90;999.90;;;13.90;80.40;;;;;;5070823;28;20466;-67
2022/04/11 09:58:04;;;;;;;1999.90;999.90;;;14.00;78.80;;;;;;5068732;28;20493;-67
2022/04/11 10:00:33;;;;;;;1999.90;999.90;;;14.00;80.80;;;;;;5069888;28;20485;-67
2022/04/11 10:03:00;;;;;;;1999.90;999.90;;;13.80;80.90;;;;;;5069357;28;20873;-68
2022/04/11 10:05:27;;;;;;;1999.90;999.90;;;14.30;81.60;;;;;;5070739;28;20978;-67
2022/04/11 10:07:56;;;;;;;1999.90;999.90;;;14.40;80.20;;;;;;5072660;28;20542;-68
2022/04/11 10:10:23;;;;;;;1999.90;999.90;;;14.70;78.30;;;;;;5069177;28;20466;-67
2022/04/11 10:12:53;;;;;;;1999.90;999.90;;;15.00;79.50;;;;;;5069981;28;20445;-68
2022/04/11 10:15:20;;;;;;;1999.90;999.90;;;15.30;78.40;;;;;;5068856;28;20454;-68
2022/04/11 10:17:48;;;;;;;1999.90;999.90;;;14.80;75.10;;;;;;5070335;28;20994;-67
2022/04/11 10:20:24;;;;;;;1999.90;999.90;;;15.40;78.00;;;;;;5070371;28;20504;-68
2022/04/11 10:22:57;;;;;;;1999.90;999.90;;;15.60;75.50;;;;;;5070102;28;20457;-70
2022/04/11 10:25:25;;;;;;;1999.90;999.90;;;15.10;72.90;;;;;;5069663;28;20456;-67
2022/04/11 10:28:15;;;;;;;1999.90;999.90;;;14.80;76.40;;;;;;5070560;28;20937;-67
2022/04/11 10:30:42;;;;;;;1999.90;999.90;;;14.50;74.30;;;;;;5067204;28;20467;-65
2022/04/11 10:33:09;;;;;;;1999.90;999.90;;;14.30;77.70;;;;;;5070108;28;20986;-67
2022/04/11 10:35:42;;;;;;;1999.90;999.90;;;14.20;75.80;;;;;;5070782;28;20519;-67
2022/04/11 10:38:11;;;;;;;1999.90;999.90;;;14.30;79.50;;;;;;5071851;28;20488;-67
2022/04/11 10:40:46;;;;;;;1999.90;999.90;;;14.50;79.70;;;;;;5070072;28;20515;-68
2022/04/11 10:43:15;;;;;;;1999.90;999.90;;;14.50;79.00;;;;;;5066303;28;20449;-69
2022/04/11 10:45:44;;;;;;;1999.90;999.90;;;14.50;78.20;;;;;;5069876;28;20541;-68
2022/04/11 10:48:11;;;;;;;1999.90;999.90;;;14.30;78.30;;;;;;5070790;28;21033;-68
2022/04/11 10:50:39;;;;;;;1999.90;999.90;;;14.30;77.30;;;;;;5071253;28;20468;-68
2022/04/11 10:53:13;;;;;;;1999.90;999.90;;;14.50;76.90;;;;;;5069300;28;20495;-68
2022/04/11 10:56:09;;;;;;;1999.90;999.90;;;14.30;75.70;;;;;;5070527;28;20461;-68
2022/04/11 10:58:42;;;;;;;1999.90;999.90;;;14.40;75.20;;;;;;5007914;28;20915;-68
2022/04/11 11:01:09;;;;;;;1999.90;999.90;;;14.50;75.20;;;;;;5057167;28;20481;-68
2022/04/11 11:03:39;;;;;;;1999.90;999.90;;;14.70;76.50;;;;;;5068462;28;20523;-68
2022/04/11 11:06:17;;;;;;;1999.90;999.90;;;14.70;75.00;;;;;;5070684;28;20507;-66
2022/04/11 11:08:46;;;;;;;1999.90;999.90;;;15.10;76.00;;;;;;5072132;28;20484;-67
2022/04/11 11:11:21;;;;;;;1999.90;999.90;;;15.10;73.30;;;;;;5070841;28;20468;-67
2022/04/11 11:13:49;;;;;;;1999.90;999.90;;;15.00;73.80;;;;;;5073649;28;20526;-68
2022/04/11 11:16:28;;;;;;;1999.90;999.90;;;14.80;74.60;;;;;;5071455;28;20553;-68
2022/04/11 11:19:15;;;;;;;1999.90;999.90;;;14.80;75.50;;;;;;5068449;28;20491;-69
2022/04/11 11:22:05;;;;;;;1999.90;999.90;;;14.40;73.90;;;;;;5071707;28;21064;-68
2022/04/11 11:24:33;;;;;;;1999.90;999.90;;;14.30;79.00;;;;;;5071984;28;20552;-67
2022/04/11 11:27:05;;;;;;;1999.90;999.90;;;14.30;77.30;;;;;;5071881;28;20468;-68
2022/04/11 11:29:35;;;;;;;1999.90;999.90;;;14.50;76.70;;;;;;5071334;28;20489;-68
2022/04/11 11:32:03;;;;;;;1999.90;999.90;;;14.70;74.80;;;;;;5073279;28;20453;-67
2022/04/11 11:34:31;;;;;;;1999.90;999.90;;;14.70;72.20;;;;;;5073592;28;20538;-65
2022/04/11 11:36:59;;;;;;;1999.90;999.90;;;14.80;72.80;;;;;;5073372;28;20465;-68
2022/04/11 11:39:27;;;;;;;1999.90;999.90;;;14.90;73.50;;;;;;5072732;28;20481;-68
2022/04/11 11:42:00;;;;;;;1999.90;999.90;;;15.00;75.40;;;;;;5073090;28;20476;-68
2022/04/11 11:44:27;;;;;;;1999.90;999.90;;;15.20;77.00;;;;;;5076672;28;20531;-68
2022/04/11 11:46:56;;;;;;;1999.90;999.90;;;15.40;74.60;;;;;;5072733;28;20889;-68
2022/04/11 11:49:24;;;;;;;1999.90;999.90;;;15.10;72.50;;;;;;5076255;28;20489;-68
2022/04/11 11:51:52;;;;;;;1999.90;999.90;;;14.90;74.70;;;;;;5076450;28;20454;-67
2022/04/11 11:54:33;;;;;;;1999.90;999.90;;;14.50;73.80;;;;;;5073349;28;20461;-68
2022/04/11 11:57:01;;;;;;;1999.90;999.90;;;14.40;76.00;;;;;;5073323;28;20474;-67
2022/04/11 11:59:29;;;;;;;1999.90;999.90;;;14.70;79.90;;;;;;5071833;28;20945;-67
2022/04/11 12:04:36;;;;;;;1999.90;999.90;;;15.10;75.50;;;;;;5070424;28;20445;-66
2022/04/11 12:07:03;;;;;;;1999.90;999.90;;;15.10;75.50;;;;;;5070451;28;20828;-66
2022/04/11 12:09:35;;;;;;;1999.90;999.90;;;15.20;72.30;;;;;;5072013;28;20860;-66